KDMO/DMO METAR and TAF weather

Enter ICAO airport designator
Station Type Date Time Source
KDMO METAR 2020/01/19 02:53 UTC NOAA

KDMO 190253Z AUTO 30015G22KT 10SM CLR M02/M11 A3036 RMK AO2 SLP290 T10221106 53011


Station Type Date Time Source
KDMO Decoded METAR 2020/01/19 02:53 UTC NOAA

SEDALIA MEMORIAL AIRPORT, MO, United States (KDMO) 38-43N 93-10W 274M
Jan 18, 2020 - 09:53 PM EST / 2020.01.19 0253 UTC
Wind: from the WNW (300 degrees) at 17 MPH (15 KT) gusting to 25 MPH (22 KT):0
Visibility: 10 mile(s):0
Sky conditions: clear
Temperature: 28.0 F (-2.2 C)
Windchill: 15 F (-9 C):1
Dew Point: 12.9 F (-10.6 C)
Relative Humidity: 52%
Pressure (altimeter): 30.36 in. Hg (1028 hPa)
Pressure tendency: 0.03 inches (1.1 hPa) higher than three hours ago
ob: KDMO 190253Z AUTO 30015G22KT 10SM CLR M02/M11 A3036 RMK AO2 SLP290 T10221106 53011
cycle: 3

Station Type Date Time Source
KDMO TAF UTC NOAA

Error!

Example: see airport list